createdAt,value
2024-02-22T00:10:20.384Z,7.77
2024-02-22T00:26:02.725Z,7.78
2024-02-22T00:41:45.920Z,7.82
2024-02-22T00:57:28.792Z,7.83
2024-02-22T01:13:11.778Z,7.85
2024-02-22T01:28:53.999Z,7.89
2024-02-22T01:44:36.470Z,8.04
2024-02-22T02:00:19.670Z,8.18
2024-02-22T02:16:02.038Z,8.31
2024-02-22T02:31:44.857Z,8.43
2024-02-22T02:47:28.022Z,8.49
2024-02-22T03:03:10.609Z,8.68
2024-02-22T03:18:53.131Z,9.01
2024-02-22T03:34:36.290Z,9.41
2024-02-22T03:50:19.087Z,9.51
2024-02-22T04:06:01.863Z,9.27
2024-02-22T04:21:44.350Z,9.34
2024-02-22T04:37:27.398Z,9.35
2024-02-22T04:53:09.704Z,9.37
2024-02-22T05:08:52.418Z,9.29
2024-02-22T05:24:35.031Z,9.03
2024-02-22T05:40:17.340Z,8.57
2024-02-22T05:56:00.378Z,8.25
2024-02-22T06:11:43.294Z,8.02
2024-02-22T06:27:25.931Z,7.89
2024-02-22T06:43:08.854Z,7.92
2024-02-22T06:58:51.052Z,8.01
2024-02-22T07:14:33.983Z,7.94
2024-02-22T07:30:16.598Z,7.88
2024-02-22T07:45:58.964Z,7.84
2024-02-22T08:01:41.714Z,7.8
2024-02-22T08:17:24.472Z,7.76
2024-02-22T08:33:07.046Z,7.74
2024-02-22T08:48:49.793Z,7.83
2024-02-22T09:04:32.616Z,7.87
2024-02-22T09:20:15.356Z,7.93
2024-02-22T09:35:58.005Z,8.13
2024-02-22T09:51:40.625Z,8.31
2024-02-22T10:07:23.243Z,8.62
2024-02-22T10:23:05.685Z,8.75
2024-02-22T10:38:48.042Z,9.37
2024-02-22T10:54:30.817Z,10.03
2024-02-22T11:10:13.207Z,10.72
2024-02-22T11:25:56.404Z,10.29
2024-02-22T11:41:38.893Z,10.69
2024-02-22T11:57:21.567Z,10.76
2024-02-22T12:13:04.663Z,10.46
2024-02-22T12:28:47.165Z,10.4
2024-02-22T12:29:34.487Z,10.53
2024-02-22T12:45:16.865Z,10.56
2024-02-22T13:00:59.667Z,10.63
2024-02-22T13:16:42.104Z,11.86
2024-02-22T13:32:24.603Z,11.71
2024-02-22T13:48:07.402Z,11.36
2024-02-22T14:03:50.720Z,11.32
2024-02-22T14:19:33.068Z,11.18
2024-02-22T14:35:16.131Z,11.54
2024-02-22T14:50:58.405Z,13.02
2024-02-22T15:06:40.852Z,12.72
2024-02-22T15:22:23.065Z,12.26
2024-02-22T15:38:05.359Z,11.79
2024-02-22T15:53:48.252Z,11.38
2024-02-22T16:09:30.437Z,11.05
2024-02-22T16:25:13.175Z,10.88
2024-02-22T16:40:55.943Z,10.74
2024-02-22T16:56:38.633Z,10.55
2024-02-22T17:12:21.474Z,10.46
2024-02-22T17:28:03.713Z,10.42
2024-02-22T17:43:46.668Z,10.3
2024-02-22T17:59:28.888Z,9.99
2024-02-22T18:15:11.684Z,9.89
2024-02-22T18:30:54.784Z,9.88
2024-02-22T18:46:37.657Z,9.93
2024-02-22T19:02:20.806Z,9.99
2024-02-22T19:18:03.138Z,10.1
2024-02-22T19:33:46.066Z,10.16
2024-02-22T19:49:29.183Z,10.21
2024-02-22T20:05:11.949Z,10.18
2024-02-22T20:20:54.662Z,10.18
2024-02-22T20:36:37.795Z,10.18
2024-02-22T20:52:20.134Z,10.08
2024-02-22T21:08:03.178Z,9.97
2024-02-22T21:23:45.971Z,9.85
2024-02-22T21:39:28.443Z,9.76
2024-02-22T21:55:11.093Z,9.74
2024-02-22T22:10:53.835Z,9.67
2024-02-22T22:26:36.220Z,9.68
2024-02-22T22:42:18.739Z,9.58
2024-02-22T22:58:01.767Z,9.51
2024-02-22T23:13:44.026Z,9.39
2024-02-22T23:29:27.163Z,9.32
2024-02-22T23:45:09.668Z,9.43
